sensor_id;sensor_type;location;lat;lon;timestamp;temperature;humidity
22522;DHT22;11427;51.062;17.044;2022-12-18T00:04:59;-3.00;99.90
22522;DHT22;11427;51.062;17.044;2022-12-18T00:20:01;-3.10;99.90
22522;DHT22;11427;51.062;17.044;2022-12-18T00:35:04;-2.90;99.90
22522;DHT22;11427;51.062;17.044;2022-12-18T00:50:07;-3.00;99.90
22522;DHT22;11427;51.062;17.044;2022-12-18T01:05:11;-3.00;99.90
22522;DHT22;11427;51.062;17.044;2022-12-18T01:20:14;-3.10;99.90
22522;DHT22;11427;51.062;17.044;2022-12-18T01:35:16;-2.20;99.90
22522;DHT22;11427;51.062;17.044;2022-12-18T01:50:27;-2.60;99.90
22522;DHT22;11427;51.062;17.044;2022-12-18T02:06:36;-2.70;99.90
22522;DHT22;11427;51.062;17.044;2022-12-18T02:36:36;-2.70;99.90
22522;DHT22;11427;51.062;17.044;2022-12-18T02:52:01;-1.50;99.90
22522;DHT22;11427;51.062;17.044;2022-12-18T03:07:11;-2.50;99.90
22522;DHT22;11427;51.062;17.044;2022-12-18T03:22:16;-2.40;99.90
22522;DHT22;11427;51.062;17.044;2022-12-18T03:37:19;-2.30;99.90
22522;DHT22;11427;51.062;17.044;2022-12-18T03:52:26;-2.40;99.90
22522;DHT22;11427;51.062;17.044;2022-12-18T04:07:30;-2.50;99.90
22522;DHT22;11427;51.062;17.044;2022-12-18T04:22:33;-2.80;99.90
22522;DHT22;11427;51.062;17.044;2022-12-18T04:37:35;-2.50;99.90
22522;DHT22;11427;51.062;17.044;2022-12-18T04:52:37;-2.70;99.90
22522;DHT22;11427;51.062;17.044;2022-12-18T05:07:39;-3.10;99.90
22522;DHT22;11427;51.062;17.044;2022-12-18T05:22:42;-3.00;99.90
22522;DHT22;11427;51.062;17.044;2022-12-18T05:37:44;-3.10;99.90
22522;DHT22;11427;51.062;17.044;2022-12-18T05:52:46;-2.90;99.90
22522;DHT22;11427;51.062;17.044;2022-12-18T06:07:48;-3.10;99.90
22522;DHT22;11427;51.062;17.044;2022-12-18T06:22:49;-3.10;99.90
22522;DHT22;11427;51.062;17.044;2022-12-18T06:37:51;-3.10;99.90
22522;DHT22;11427;51.062;17.044;2022-12-18T06:52:53;-2.50;99.90
22522;DHT22;11427;51.062;17.044;2022-12-18T07:07:55;-3.00;99.90
22522;DHT22;11427;51.062;17.044;2022-12-18T07:22:57;-3.30;99.90
22522;DHT22;11427;51.062;17.044;2022-12-18T07:37:59;-3.40;99.90
22522;DHT22;11427;51.062;17.044;2022-12-18T07:53:01;-2.90;99.90
22522;DHT22;11427;51.062;17.044;2022-12-18T08:08:05;-3.10;99.90
22522;DHT22;11427;51.062;17.044;2022-12-18T08:23:07;-3.30;99.90
22522;DHT22;11427;51.062;17.044;2022-12-18T08:38:09;-2.90;99.90
22522;DHT22;11427;51.062;17.044;2022-12-18T08:53:11;-3.30;99.90
22522;DHT22;11427;51.062;17.044;2022-12-18T09:08:12;-3.00;99.90
22522;DHT22;11427;51.062;17.044;2022-12-18T09:23:14;-2.80;99.90
22522;DHT22;11427;51.062;17.044;2022-12-18T09:38:18;-3.00;99.90
22522;DHT22;11427;51.062;17.044;2022-12-18T09:53:25;-2.60;99.90
22522;DHT22;11427;51.062;17.044;2022-12-18T10:38:53;-2.90;99.90
22522;DHT22;11427;51.062;17.044;2022-12-18T10:54:19;-3.00;99.90
22522;DHT22;11427;51.062;17.044;2022-12-18T11:09:25;-3.00;99.90
22522;DHT22;11427;51.062;17.044;2022-12-18T11:24:32;-3.00;99.90
22522;DHT22;11427;51.062;17.044;2022-12-18T11:54:40;-2.90;99.90
22522;DHT22;11427;51.062;17.044;2022-12-18T12:10:08;-2.90;99.90
22522;DHT22;11427;51.062;17.044;2022-12-18T12:40:26;-2.80;99.90
22522;DHT22;11427;51.062;17.044;2022-12-18T12:55:48;-2.80;99.90
22522;DHT22;11427;51.062;17.044;2022-12-18T13:10:56;-2.20;99.90
22522;DHT22;11427;51.062;17.044;2022-12-18T13:41:28;-3.20;99.90
22522;DHT22;11427;51.062;17.044;2022-12-18T13:56:32;-3.30;99.90
22522;DHT22;11427;51.062;17.044;2022-12-18T14:11:36;-3.50;99.90
22522;DHT22;11427;51.062;17.044;2022-12-18T14:26:41;-3.80;99.90
22522;DHT22;11427;51.062;17.044;2022-12-18T14:41:43;-3.70;99.90
22522;DHT22;11427;51.062;17.044;2022-12-18T14:56:51;-3.80;99.90
22522;DHT22;11427;51.062;17.044;2022-12-18T15:11:59;-4.00;99.90
22522;DHT22;11427;51.062;17.044;2022-12-18T15:27:02;-4.10;99.90
22522;DHT22;11427;51.062;17.044;2022-12-18T15:42:07;-4.30;99.90
22522;DHT22;11427;51.062;17.044;2022-12-18T15:57:35;-4.30;99.90
22522;DHT22;11427;51.062;17.044;2022-12-18T16:12:38;-4.30;99.90
22522;DHT22;11427;51.062;17.044;2022-12-18T16:27:40;-4.60;99.90
22522;DHT22;11427;51.062;17.044;2022-12-18T16:42:44;-4.60;99.90
22522;DHT22;11427;51.062;17.044;2022-12-18T16:57:46;-3.90;99.90
22522;DHT22;11427;51.062;17.044;2022-12-18T17:12:50;-5.30;99.90
22522;DHT22;11427;51.062;17.044;2022-12-18T17:27:52;-5.10;99.90
22522;DHT22;11427;51.062;17.044;2022-12-18T17:42:54;-5.80;99.90
22522;DHT22;11427;51.062;17.044;2022-12-18T17:57:56;-5.70;99.90
22522;DHT22;11427;51.062;17.044;2022-12-18T18:12:58;-5.90;99.90
22522;DHT22;11427;51.062;17.044;2022-12-18T18:28:18;-6.00;99.90
22522;DHT22;11427;51.062;17.044;2022-12-18T18:43:21;-6.20;99.90
22522;DHT22;11427;51.062;17.044;2022-12-18T18:58:23;-6.40;99.90
22522;DHT22;11427;51.062;17.044;2022-12-18T19:13:27;-6.60;99.90
22522;DHT22;11427;51.062;17.044;2022-12-18T19:28:30;-6.70;99.90
22522;DHT22;11427;51.062;17.044;2022-12-18T19:43:33;-6.80;99.90
22522;DHT22;11427;51.062;17.044;2022-12-18T19:58:38;-6.90;99.90
22522;DHT22;11427;51.062;17.044;2022-12-18T20:13:41;-7.10;99.90
22522;DHT22;11427;51.062;17.044;2022-12-18T20:28:44;-7.20;99.90
22522;DHT22;11427;51.062;17.044;2022-12-18T20:43:46;-7.30;99.90
22522;DHT22;11427;51.062;17.044;2022-12-18T20:58:48;-7.30;99.90
22522;DHT22;11427;51.062;17.044;2022-12-18T21:13:55;-7.20;99.90
22522;DHT22;11427;51.062;17.044;2022-12-18T21:28:59;-7.10;99.90
22522;DHT22;11427;51.062;17.044;2022-12-18T21:44:02;-7.20;99.90
22522;DHT22;11427;51.062;17.044;2022-12-18T21:59:07;-7.20;99.90
22522;DHT22;11427;51.062;17.044;2022-12-18T22:14:09;-7.50;99.90
22522;DHT22;11427;51.062;17.044;2022-12-18T22:29:29;-7.40;99.90
22522;DHT22;11427;51.062;17.044;2022-12-18T22:44:49;-6.30;99.90
22522;DHT22;11427;51.062;17.044;2022-12-18T22:59:51;-7.30;99.90
22522;DHT22;11427;51.062;17.044;2022-12-18T23:14:53;-7.50;99.90
22522;DHT22;11427;51.062;17.044;2022-12-18T23:29:55;-7.50;99.90
22522;DHT22;11427;51.062;17.044;2022-12-18T23:44:59;-7.40;99.90
